Time;durP1;ratioP1;P1;durP2;ratioP2;P2;SDS_P1;SDS_P2;PMS_P1;PMS_P2;Temp;Humidity;BMP_temperature;BMP_pressure;BME280_temperature;BME280_humidity;BME280_pressure;Samples;Min_cycle;Max_cycle;Signal;HPM_P1;HPM_P2
2022/10/15 00:02:14;;;;;;;;;4.00;4.00;;;;;;;;5165211;28;9491;-72
2022/10/15 00:04:47;;;;;;;;;9.00;9.00;;;;;;;;5181344;28;8803;-72
2022/10/15 00:07:18;;;;;;;;;4.00;4.00;;;;;;;;5164830;28;8791;-72
2022/10/15 00:09:49;;;;;;;;;2.00;2.00;;;;;;;;5148498;28;8819;-70
2022/10/15 00:12:20;;;;;;;;;3.20;3.20;;;;;;;;5164790;28;8807;-71
2022/10/15 00:14:51;;;;;;;;;3.80;3.80;;;;;;;;5163943;28;8819;-71
2022/10/15 00:17:42;;;;;;;;;4.50;4.50;;;;;;;;5177978;28;8791;-70
2022/10/15 00:20:13;;;;;;;;;1.00;1.00;;;;;;;;5164476;28;8803;-70
2022/10/15 00:22:44;;;;;;;;;6.20;6.20;;;;;;;;5164322;28;9678;-70
2022/10/15 00:25:34;;;;;;;;;6.80;6.80;;;;;;;;5164181;28;8823;-71
2022/10/15 00:28:05;;;;;;;;;4.40;4.40;;;;;;;;5148143;28;8862;-72
2022/10/15 00:30:36;;;;;;;;;7.00;7.00;;;;;;;;5148171;28;8937;-72
2022/10/15 00:33:26;;;;;;;;;8.40;8.40;;;;;;;;5164846;28;8858;-71
2022/10/15 00:36:08;;;;;;;;;3.40;3.40;;;;;;;;5147936;28;8804;-71
2022/10/15 00:38:39;;;;;;;;;4.40;4.40;;;;;;;;5132174;28;8810;-70
2022/10/15 00:41:16;;;;;;;;;7.40;7.40;;;;;;;;5147941;28;8800;-70
2022/10/15 00:43:48;;;;;;;;;6.00;6.00;;;;;;;;5163936;28;8811;-69
2022/10/15 00:46:20;;;;;;;;;2.00;2.00;;;;;;;;5148207;28;8823;-70
2022/10/15 00:48:59;;;;;;;;;4.00;4.00;;;;;;;;5163749;28;8807;-70
2022/10/15 00:51:33;;;;;;;;;2.40;2.40;;;;;;;;5163532;28;8799;-71
2022/10/15 00:54:04;;;;;;;;;0.00;0.00;;;;;;;;5163801;28;9607;-71
2022/10/15 00:56:38;;;;;;;;;5.60;4.20;;;;;;;;5147895;28;9732;-70
2022/10/15 00:59:10;;;;;;;;;6.00;6.00;;;;;;;;5147442;28;8839;-71
2022/10/15 01:01:42;;;;;;;;;6.20;6.20;;;;;;;;5147386;28;9565;-71
2022/10/15 01:04:13;;;;;;;;;11.60;11.60;;;;;;;;5163475;28;8822;-71
2022/10/15 01:06:45;;;;;;;;;3.50;3.50;;;;;;;;5163209;28;8783;-70
2022/10/15 01:09:16;;;;;;;;;6.00;6.00;;;;;;;;5147578;28;8771;-71
2022/10/15 01:12:10;;;;;;;;;2.20;1.80;;;;;;;;5163531;28;8842;-71
2022/10/15 01:14:58;;;;;;;;;6.00;6.00;;;;;;;;5163782;28;8811;-71
2022/10/15 01:17:36;;;;;;;;;6.00;5.50;;;;;;;;5164061;28;8805;-70
2022/10/15 01:20:14;;;;;;;;;4.00;4.00;;;;;;;;5163730;28;8807;-71
2022/10/15 01:23:01;;;;;;;;;7.00;7.00;;;;;;;;5147490;28;8822;-69
2022/10/15 01:26:14;;;;;;;;;8.25;8.00;;;;;;;;5163150;28;8787;-69
2022/10/15 01:29:09;;;;;;;;;7.40;7.40;;;;;;;;5178941;28;8779;-69
2022/10/15 01:31:56;;;;;;;;;16.60;16.60;;;;;;;;5146642;28;9571;-69
2022/10/15 01:34:42;;;;;;;;;7.00;7.00;;;;;;;;5179649;28;8827;-69
2022/10/15 01:37:16;;;;;;;;;2.40;2.40;;;;;;;;5163649;28;8817;-71
2022/10/15 01:39:53;;;;;;;;;6.50;6.50;;;;;;;;5163108;28;8791;-70
2022/10/15 01:42:31;;;;;;;;;9.00;9.00;;;;;;;;5163477;28;9656;-71
2022/10/15 01:45:24;;;;;;;;;6.00;6.00;;;;;;;;5163026;28;9530;-71
2022/10/15 01:48:26;;;;;;;;;9.00;9.00;;;;;;;;5150137;28;8810;-71
2022/10/15 01:51:03;;;;;;;;;12.00;12.00;;;;;;;;5163624;28;8908;-71
2022/10/15 01:53:35;;;;;;;;;4.00;4.00;;;;;;;;5163055;28;9530;-71
2022/10/15 01:56:10;;;;;;;;;3.00;3.00;;;;;;;;5162836;28;8795;-71
2022/10/15 01:59:01;;;;;;;;;7.00;7.00;;;;;;;;5149538;28;8815;-72
2022/10/15 02:01:33;;;;;;;;;3.80;3.80;;;;;;;;5146809;28;8811;-70
2022/10/15 02:04:17;;;;;;;;;6.00;6.00;;;;;;;;5146600;28;9538;-70
2022/10/15 02:07:22;;;;;;;;;12.60;12.60;;;;;;;;5164153;28;8886;-70
2022/10/15 02:10:00;;;;;;;;;4.20;3.40;;;;;;;;5162578;28;8791;-73
2022/10/15 02:13:07;;;;;;;;;5.80;5.60;;;;;;;;5146758;28;8779;-69
2022/10/15 02:15:46;;;;;;;;;14.80;14.80;;;;;;;;5086138;29;9642;-69
2022/10/15 02:18:27;;;;;;;;;10.40;10.40;;;;;;;;5169810;28;8791;-69
2022/10/15 02:21:05;;;;;;;;;3.20;3.20;;;;;;;;5146610;28;8853;-69
2022/10/15 02:24:12;;;;;;;;;7.00;7.00;;;;;;;;5161957;28;8807;-70
2022/10/15 02:26:45;;;;;;;;;11.00;11.00;;;;;;;;5086080;29;8827;-70
2022/10/15 02:29:20;;;;;;;;;8.40;8.40;;;;;;;;5152011;28;8795;-70
2022/10/15 02:31:53;;;;;;;;;4.00;4.00;;;;;;;;5162574;28;8795;-71
2022/10/15 02:34:44;;;;;;;;;4.40;3.60;;;;;;;;5179329;28;8819;-69
2022/10/15 02:37:19;;;;;;;;;2.40;2.40;;;;;;;;5162574;28;8788;-69
2022/10/15 02:39:50;;;;;;;;;4.00;4.00;;;;;;;;5180372;28;8846;-69
2022/10/15 02:42:21;;;;;;;;;1.80;1.80;;;;;;;;5166269;28;8795;-69
2022/10/15 02:44:52;;;;;;;;;12.20;11.60;;;;;;;;5165727;28;8807;-68
2022/10/15 02:47:24;;;;;;;;;8.00;7.80;;;;;;;;5165936;28;9542;-69
2022/10/15 02:49:55;;;;;;;;;5.50;5.50;;;;;;;;5166288;28;9522;-70
2022/10/15 02:52:26;;;;;;;;;6.60;6.60;;;;;;;;5150221;28;8918;-69
2022/10/15 02:54:57;;;;;;;;;6.00;6.00;;;;;;;;5166161;28;8869;-69
2022/10/15 02:57:28;;;;;;;;;7.00;7.00;;;;;;;;5165825;28;8985;-70
2022/10/15 03:00:01;;;;;;;;;12.40;12.40;;;;;;;;5182266;28;8881;-71
2022/10/15 03:02:34;;;;;;;;;19.60;19.60;;;;;;;;5181444;28;8881;-69
2022/10/15 03:05:05;;;;;;;;;6.60;6.00;;;;;;;;5165902;28;8803;-70
2022/10/15 03:07:36;;;;;;;;;11.80;9.60;;;;;;;;5165847;28;8842;-69
2022/10/15 03:10:08;;;;;;;;;11.60;10.00;;;;;;;;5166375;28;8806;-69
2022/10/15 03:12:39;;;;;;;;;20.00;19.20;;;;;;;;5166737;28;8852;-69
2022/10/15 03:15:11;;;;;;;;;5.60;5.60;;;;;;;;5149671;28;8885;-68
2022/10/15 03:17:42;;;;;;;;;6.00;6.00;;;;;;;;5165595;28;8795;-68
2022/10/15 03:20:13;;;;;;;;;8.40;8.40;;;;;;;;5149401;28;8783;-69
2022/10/15 03:22:45;;;;;;;;;7.00;7.00;;;;;;;;5165470;28;8779;-69
2022/10/15 03:25:16;;;;;;;;;3.80;3.80;;;;;;;;5165226;28;8818;-69
2022/10/15 03:27:50;;;;;;;;;6.40;6.40;;;;;;;;5149548;28;8783;-70
2022/10/15 03:30:28;;;;;;;;;4.80;4.80;;;;;;;;5165570;28;8858;-69
2022/10/15 03:32:59;;;;;;;;;3.00;3.00;;;;;;;;5165684;28;8801;-69
2022/10/15 03:35:31;;;;;;;;;2.00;2.00;;;;;;;;5165432;28;8841;-68
2022/10/15 03:38:02;;;;;;;;;2.00;2.00;;;;;;;;5166607;28;8809;-68
2022/10/15 03:40:34;;;;;;;;;5.60;5.20;;;;;;;;5165056;28;8811;-69
2022/10/15 03:43:24;;;;;;;;;2.00;2.00;;;;;;;;5165283;28;8787;-68
2022/10/15 03:46:00;;;;;;;;;2.00;2.00;;;;;;;;5165187;28;8826;-68
2022/10/15 03:48:31;;;;;;;;;2.40;2.40;;;;;;;;5181508;28;8787;-68
2022/10/15 03:51:02;;;;;;;;;1.00;1.00;;;;;;;;5164273;28;8775;-68
2022/10/15 03:53:33;;;;;;;;;0.00;0.00;;;;;;;;5181333;28;8847;-68
2022/10/15 03:56:23;;;;;;;;;3.60;3.60;;;;;;;;5165181;28;8795;-69
2022/10/15 03:58:54;;;;;;;;;3.00;3.00;;;;;;;;5164615;28;8839;-69
2022/10/15 04:01:25;;;;;;;;;9.80;9.80;;;;;;;;5165106;28;8818;-68
2022/10/15 04:03:56;;;;;;;;;4.40;4.40;;;;;;;;5180588;28;8823;-69
2022/10/15 04:06:33;;;;;;;;;9.80;9.40;;;;;;;;5148632;28;8813;-68
2022/10/15 04:09:10;;;;;;;;;9.00;9.00;;;;;;;;5148729;28;9574;-69
2022/10/15 04:11:41;;;;;;;;;5.80;5.80;;;;;;;;5132666;28;9507;-69
2022/10/15 04:14:13;;;;;;;;;34.80;33.20;;;;;;;;5164481;28;10071;-69
2022/10/15 04:16:44;;;;;;;;;2.40;2.40;;;;;;;;5164829;28;8917;-69
2022/10/15 04:19:34;;;;;;;;;12.60;12.60;;;;;;;;5164614;28;9621;-70
2022/10/15 04:22:24;;;;;;;;;7.20;7.00;;;;;;;;5164562;28;9565;-72
2022/10/15 04:25:00;;;;;;;;;10.40;10.40;;;;;;;;5147539;28;8843;-71
2022/10/15 04:27:33;;;;;;;;;3.00;3.00;;;;;;;;5164868;28;8806;-72
2022/10/15 04:30:11;;;;;;;;;2.00;2.00;;;;;;;;5164639;28;8795;-71
2022/10/15 04:32:50;;;;;;;;;4.00;4.00;;;;;;;;5164385;28;8803;-71
2022/10/15 04:35:39;;;;;;;;;3.00;3.00;;;;;;;;5163136;28;8841;-69
2022/10/15 04:38:18;;;;;;;;;12.60;12.20;;;;;;;;5164333;28;8806;-71
2022/10/15 04:41:06;;;;;;;;;6.00;6.00;;;;;;;;5163667;28;9613;-72
2022/10/15 04:43:55;;;;;;;;;3.60;3.60;;;;;;;;5146873;28;8811;-71
2022/10/15 04:46:26;;;;;;;;;9.40;8.20;;;;;;;;5146477;28;9543;-72
2022/10/15 04:48:59;;;;;;;;;3.00;3.00;;;;;;;;5146713;28;8934;-70
2022/10/15 04:51:31;;;;;;;;;0.00;0.00;;;;;;;;5131783;28;8815;-69
2022/10/15 04:54:06;;;;;;;;;2.00;2.00;;;;;;;;5179441;28;8834;-77
2022/10/15 04:56:55;;;;;;;;;11.60;11.60;;;;;;;;5149670;28;8784;-72
2022/10/15 04:59:45;;;;;;;;;12.40;12.40;;;;;;;;5161012;28;8831;-72
2022/10/15 05:02:42;;;;;;;;;14.00;13.20;;;;;;;;5145985;28;8819;-71
2022/10/15 05:05:28;;;;;;;;;14.80;14.80;;;;;;;;5162348;28;8802;-73
2022/10/15 05:08:18;;;;;;;;;19.00;19.00;;;;;;;;5160818;28;8803;-73
2022/10/15 05:11:16;;;;;;;;;13.40;13.40;;;;;;;;5146576;28;8811;-74
2022/10/15 05:13:48;;;;;;;;;4.00;4.00;;;;;;;;5143574;28;8893;-73
2022/10/15 05:16:20;;;;;;;;;10.20;10.20;;;;;;;;5159197;28;8799;-73
2022/10/15 05:18:57;;;;;;;;;15.60;13.80;;;;;;;;5143015;28;8822;-73
2022/10/15 05:21:30;;;;;;;;;21.40;20.40;;;;;;;;5142207;28;8798;-72
2022/10/15 05:24:20;;;;;;;;;8.80;8.80;;;;;;;;5145899;28;8820;-73
2022/10/15 05:27:06;;;;;;;;;14.00;13.60;;;;;;;;5143817;28;8965;-73
2022/10/15 05:29:56;;;;;;;;;7.60;7.60;;;;;;;;5158322;28;8845;-73
2022/10/15 05:32:50;;;;;;;;;25.40;23.00;;;;;;;;5161410;28;8818;-72
2022/10/15 05:35:23;;;;;;;;;6.00;6.00;;;;;;;;5145330;28;8823;-73
2022/10/15 05:38:00;;;;;;;;;7.00;7.00;;;;;;;;5145948;28;8787;-72
2022/10/15 05:40:31;;;;;;;;;11.20;9.60;;;;;;;;5176982;28;8815;-72
2022/10/15 05:43:20;;;;;;;;;3.00;2.60;;;;;;;;5144992;28;8807;-71
2022/10/15 05:45:53;;;;;;;;;3.80;3.80;;;;;;;;5159378;28;8833;-71
2022/10/15 05:48:24;;;;;;;;;12.20;10.80;;;;;;;;5152296;28;8803;-72
2022/10/15 05:51:00;;;;;;;;;15.40;14.60;;;;;;;;5160925;28;8814;-71
2022/10/15 05:53:56;;;;;;;;;12.00;12.00;;;;;;;;5160866;28;8830;-71
2022/10/15 05:56:28;;;;;;;;;18.60;15.60;;;;;;;;5160809;28;8799;-71
2022/10/15 05:58:59;;;;;;;;;15.40;15.20;;;;;;;;5160895;28;9640;-73
2022/10/15 06:01:31;;;;;;;;;14.60;14.00;;;;;;;;5161161;28;8924;-71
2022/10/15 06:04:02;;;;;;;;;12.20;12.00;;;;;;;;5159555;28;8807;-72
2022/10/15 06:06:51;;;;;;;;;11.40;11.20;;;;;;;;5161513;28;8811;-72
2022/10/15 06:09:23;;;;;;;;;9.40;9.00;;;;;;;;5162774;28;8795;-70
2022/10/15 06:11:54;;;;;;;;;7.40;7.40;;;;;;;;5163477;28;9511;-71
2022/10/15 06:14:29;;;;;;;;;28.20;27.40;;;;;;;;5130846;28;8973;-70
2022/10/15 06:17:18;;;;;;;;;21.00;21.00;;;;;;;;5180649;28;8815;-72
2022/10/15 06:19:53;;;;;;;;;7.40;7.40;;;;;;;;5166167;28;8831;-72
2022/10/15 06:22:24;;;;;;;;;17.60;17.60;;;;;;;;5164966;28;8837;-71
2022/10/15 06:25:14;;;;;;;;;6.50;6.50;;;;;;;;5164467;28;8819;-71
2022/10/15 06:27:45;;;;;;;;;2.00;2.00;;;;;;;;5165133;28;8917;-71
2022/10/15 06:30:35;;;;;;;;;2.50;2.00;;;;;;;;5165158;28;8818;-71
2022/10/15 06:33:06;;;;;;;;;6.50;6.50;;;;;;;;5148615;28;8799;-71
2022/10/15 06:35:37;;;;;;;;;25.20;25.00;;;;;;;;5164890;28;11451;-71
2022/10/15 06:38:08;;;;;;;;;7.00;7.00;;;;;;;;5165316;28;8873;-71
2022/10/15 06:40:39;;;;;;;;;4.60;3.40;;;;;;;;5166343;28;8877;-71
2022/10/15 06:43:28;;;;;;;;;9.00;9.00;;;;;;;;5166340;28;9530;-71
2022/10/15 06:46:18;;;;;;;;;11.80;11.80;;;;;;;;5165150;28;8897;-71
2022/10/15 06:48:50;;;;;;;;;8.00;8.00;;;;;;;;5165597;28;8788;-71
2022/10/15 06:51:21;;;;;;;;;7.40;7.40;;;;;;;;5165888;28;9272;-71
2022/10/15 06:53:54;;;;;;;;;6.40;6.20;;;;;;;;5166114;28;8885;-71
2022/10/15 06:56:25;;;;;;;;;14.20;14.00;;;;;;;;5181984;28;8779;-71
2022/10/15 06:58:56;;;;;;;;;7.40;5.60;;;;;;;;5149917;28;8823;-71
2022/10/15 07:01:27;;;;;;;;;12.50;12.00;;;;;;;;5165812;28;8820;-73
2022/10/15 07:03:59;;;;;;;;;9.40;9.40;;;;;;;;5166422;28;10044;-73
2022/10/15 07:06:30;;;;;;;;;9.60;9.60;;;;;;;;5182407;28;8771;-72
2022/10/15 07:09:01;;;;;;;;;5.20;5.20;;;;;;;;5182214;28;8804;-72
2022/10/15 07:11:33;;;;;;;;;7.60;7.60;;;;;;;;5150012;28;8917;-72
2022/10/15 07:14:22;;;;;;;;;7.60;7.60;;;;;;;;5165977;28;8823;-72
2022/10/15 07:16:53;;;;;;;;;1.00;1.00;;;;;;;;5149667;28;9506;-72
2022/10/15 07:19:27;;;;;;;;;7.60;7.00;;;;;;;;5166881;28;8803;-71
2022/10/15 07:21:58;;;;;;;;;1.00;1.00;;;;;;;;5165702;28;8799;-71
2022/10/15 07:24:29;;;;;;;;;3.25;3.25;;;;;;;;5165502;28;8803;-72
2022/10/15 07:27:01;;;;;;;;;2.00;2.00;;;;;;;;5148024;28;9522;-72
2022/10/15 07:29:32;;;;;;;;;6.00;6.00;;;;;;;;5165562;28;9587;-72
2022/10/15 07:32:03;;;;;;;;;3.80;3.80;;;;;;;;5165380;28;8881;-72
2022/10/15 07:34:34;;;;;;;;;8.00;8.00;;;;;;;;5181657;28;8827;-72
2022/10/15 07:37:06;;;;;;;;;9.80;9.80;;;;;;;;5165601;28;8783;-72
2022/10/15 07:39:37;;;;;;;;;13.00;13.00;;;;;;;;5149020;28;8791;-72
2022/10/15 07:42:09;;;;;;;;;8.00;8.00;;;;;;;;5133306;28;8787;-72
2022/10/15 07:44:40;;;;;;;;;7.40;7.40;;;;;;;;5181493;28;8815;-72
2022/10/15 07:47:14;;;;;;;;;23.40;21.60;;;;;;;;5149298;28;8925;-72
2022/10/15 07:49:45;;;;;;;;;6.80;6.80;;;;;;;;5165214;28;9502;-72
2022/10/15 07:52:16;;;;;;;;;10.00;8.80;;;;;;;;5148740;28;8799;-72
2022/10/15 07:54:47;;;;;;;;;9.00;9.00;;;;;;;;5164910;28;8819;-72
2022/10/15 07:57:20;;;;;;;;;12.00;12.00;;;;;;;;5149456;28;8806;-72
2022/10/15 07:59:51;;;;;;;;;9.40;9.40;;;;;;;;5180943;28;8835;-72
2022/10/15 08:02:22;;;;;;;;;1.80;1.60;;;;;;;;5165080;28;8792;-72
2022/10/15 08:04:53;;;;;;;;;4.00;4.00;;;;;;;;5148667;28;8840;-72
2022/10/15 08:07:25;;;;;;;;;4.00;3.25;;;;;;;;5164875;28;8784;-72
2022/10/15 08:09:55;;;;;;;;;0.20;0.20;;;;;;;;5165900;28;8803;-72
2022/10/15 08:12:30;;;;;;;;;3.50;3.50;;;;;;;;5149091;28;8962;-72
2022/10/15 08:15:01;;;;;;;;;5.00;5.00;;;;;;;;5148423;28;8969;-73
2022/10/15 08:17:33;;;;;;;;;7.60;7.60;;;;;;;;5166604;28;10129;-72
2022/10/15 08:20:04;;;;;;;;;26.40;26.00;;;;;;;;5151711;28;9530;-72
2022/10/15 08:22:35;;;;;;;;;17.20;17.20;;;;;;;;5148975;28;8799;-73
2022/10/15 08:25:06;;;;;;;;;9.40;9.40;;;;;;;;5164345;28;8818;-72
2022/10/15 08:27:38;;;;;;;;;7.25;7.25;;;;;;;;5164565;28;8870;-72
2022/10/15 08:30:09;;;;;;;;;10.40;10.40;;;;;;;;5164315;28;8800;-73
2022/10/15 08:32:59;;;;;;;;;7.20;7.20;;;;;;;;5164602;28;8799;-73
2022/10/15 08:35:34;;;;;;;;;5.50;5.50;;;;;;;;5164041;28;8823;-72
2022/10/15 08:38:24;;;;;;;;;7.20;7.20;;;;;;;;5163250;28;11533;-72
2022/10/15 08:40:56;;;;;;;;;4.00;4.00;;;;;;;;5161275;28;9036;-73
2022/10/15 08:43:27;;;;;;;;;4.50;4.50;;;;;;;;5160873;28;8910;-74
2022/10/15 08:45:59;;;;;;;;;5.00;5.00;;;;;;;;5162440;28;8814;-73
2022/10/15 08:48:36;;;;;;;;;6.40;5.60;;;;;;;;5163392;28;8811;-72
2022/10/15 08:51:09;;;;;;;;;8.00;8.00;;;;;;;;5162022;28;8803;-72
2022/10/15 08:53:51;;;;;;;;;8.75;8.75;;;;;;;;5162239;28;8798;-71
2022/10/15 08:56:28;;;;;;;;;8.00;6.50;;;;;;;;5145916;28;9154;-71
2022/10/15 08:59:23;;;;;;;;;8.00;8.00;;;;;;;;5161139;28;8835;-71
2022/10/15 09:01:58;;;;;;;;;6.50;6.50;;;;;;;;5145754;28;9371;-73
2022/10/15 09:04:40;;;;;;;;;7.50;7.50;;;;;;;;5145601;28;8787;-72
2022/10/15 09:07:18;;;;;;;;;4.75;4.75;;;;;;;;5177534;28;8830;-72
2022/10/15 09:10:00;;;;;;;;;4.75;4.75;;;;;;;;5160317;28;8819;-72
2022/10/15 09:12:37;;;;;;;;;4.25;4.25;;;;;;;;5174074;28;8830;-72
2022/10/15 09:15:29;;;;;;;;;10.60;10.60;;;;;;;;5161163;28;8827;-70
2022/10/15 09:18:01;;;;;;;;;3.75;3.75;;;;;;;;5144897;28;8859;-72
2022/10/15 09:20:36;;;;;;;;;2.00;2.00;;;;;;;;5144683;28;8935;-69
2022/10/15 09:23:15;;;;;;;;;3.50;3.50;;;;;;;;5173389;28;9608;-69
2022/10/15 09:25:54;;;;;;;;;6.25;5.75;;;;;;;;5159936;28;8830;-72
2022/10/15 09:28:28;;;;;;;;;1.00;1.00;;;;;;;;5158115;28;8831;-72
2022/10/15 09:31:00;;;;;;;;;4.00;4.00;;;;;;;;5144520;28;8803;-70
2022/10/15 09:33:31;;;;;;;;;6.80;6.20;;;;;;;;5162610;28;8852;-69
2022/10/15 09:36:05;;;;;;;;;4.00;4.00;;;;;;;;5147455;28;8961;-70
2022/10/15 09:38:39;;;;;;;;;51.20;42.80;;;;;;;;5162381;28;8804;-70
2022/10/15 09:41:47;;;;;;;;;19.00;18.80;;;;;;;;5143056;28;8836;-70
2022/10/15 09:44:22;;;;;;;;;2.75;2.75;;;;;;;;5127101;28;9521;-70
2022/10/15 09:46:53;;;;;;;;;4.00;4.00;;;;;;;;5126939;28;8794;-69
2022/10/15 09:49:42;;;;;;;;;1.50;1.50;;;;;;;;5141601;28;8826;-69
2022/10/15 09:52:19;;;;;;;;;3.00;3.00;;;;;;;;5129291;28;8928;-69
2022/10/15 09:54:53;;;;;;;;;4.25;4.25;;;;;;;;5146590;28;9535;-71
2022/10/15 09:57:46;;;;;;;;;1.00;1.00;;;;;;;;5163060;28;8787;-71
2022/10/15 10:00:50;;;;;;;;;1.00;1.00;;;;;;;;5162770;28;8827;-70
2022/10/15 10:03:23;;;;;;;;;2.00;2.00;;;;;;;;5146589;28;8818;-70
2022/10/15 10:06:13;;;;;;;;;5.80;5.40;;;;;;;;5146547;28;8863;-70
2022/10/15 10:08:50;;;;;;;;;1.00;1.00;;;;;;;;5178482;28;8775;-70
2022/10/15 10:11:57;;;;;;;;;3.50;3.50;;;;;;;;5163825;28;8779;-69
2022/10/15 10:14:32;;;;;;;;;0.25;0.25;;;;;;;;5145568;28;9780;-70
2022/10/15 10:17:17;;;;;;;;;4.00;4.00;;;;;;;;5162624;28;8834;-68
2022/10/15 10:20:07;;;;;;;;;5.60;5.60;;;;;;;;5162472;28;8787;-69
2022/10/15 10:22:44;;;;;;;;;8.75;8.75;;;;;;;;5145872;28;8946;-68
2022/10/15 10:25:37;;;;;;;;;5.80;5.80;;;;;;;;5162437;28;8918;-69
2022/10/15 10:28:31;;;;;;;;;5.40;5.40;;;;;;;;5162646;28;8795;-69
2022/10/15 10:31:04;;;;;;;;;8.00;8.00;;;;;;;;5146018;28;8820;-70
2022/10/15 10:33:35;;;;;;;;;20.40;20.40;;;;;;;;5162684;28;9009;-69
2022/10/15 10:36:07;;;;;;;;;5.67;5.00;;;;;;;;5162512;28;8922;-70
2022/10/15 10:38:40;;;;;;;;;3.50;3.50;;;;;;;;5162752;28;8779;-69
2022/10/15 10:41:11;;;;;;;;;8.75;8.75;;;;;;;;5178185;28;8838;-68
2022/10/15 10:43:52;;;;;;;;;1.00;1.00;;;;;;;;5145616;28;9538;-70
2022/10/15 10:46:23;;;;;;;;;1.00;1.00;;;;;;;;5178718;28;8796;-69
2022/10/15 10:48:54;;;;;;;;;3.50;3.50;;;;;;;;5178575;28;8798;-70
2022/10/15 10:51:47;;;;;;;;;3.00;3.00;;;;;;;;5148508;28;8833;-70
2022/10/15 10:54:18;;;;;;;;;1.25;1.25;;;;;;;;5178640;28;8803;-70
2022/10/15 10:56:51;;;;;;;;;2.00;2.00;;;;;;;;5150890;28;8818;-70
2022/10/15 10:59:22;;;;;;;;;0.00;0.00;;;;;;;;5178105;28;8909;-68
2022/10/15 11:01:55;;;;;;;;;0.00;0.00;;;;;;;;5165836;28;8791;-68
2022/10/15 11:04:29;;;;;;;;;1.00;1.00;;;;;;;;5182013;28;8890;-71
2022/10/15 11:07:03;;;;;;;;;5.50;5.50;;;;;;;;5181064;28;8803;-69
2022/10/15 11:09:45;;;;;;;;;4.25;4.25;;;;;;;;5149762;28;8795;-70
2022/10/15 11:12:21;;;;;;;;;5.00;5.00;;;;;;;;5165136;28;8831;-70
2022/10/15 11:15:13;;;;;;;;;9.25;8.50;;;;;;;;5165161;28;8831;-69
2022/10/15 11:17:59;;;;;;;;;5.00;5.00;;;;;;;;5161908;28;8794;-70
2022/10/15 11:20:40;;;;;;;;;4.50;4.50;;;;;;;;5156707;28;8889;-69
2022/10/15 11:23:28;;;;;;;;;4.00;4.00;;;;;;;;5165292;28;8917;-69
2022/10/15 11:26:37;;;;;;;;;3.50;3.50;;;;;;;;5159141;28;8794;-70
2022/10/15 11:29:13;;;;;;;;;3.25;2.25;;;;;;;;5126154;28;8790;-70
2022/10/15 11:31:44;;;;;;;;;2.00;2.00;;;;;;;;5157467;28;8827;-69
2022/10/15 11:34:34;;;;;;;;;1.25;1.25;;;;;;;;5144713;28;8808;-68
2022/10/15 11:37:33;;;;;;;;;4.00;4.00;;;;;;;;5160680;28;8806;-70
2022/10/15 11:40:04;;;;;;;;;6.00;6.00;;;;;;;;5163301;28;8803;-69
2022/10/15 11:42:42;;;;;;;;;4.00;4.00;;;;;;;;5164840;28;8898;-68
2022/10/15 11:45:33;;;;;;;;;3.00;3.00;;;;;;;;5163642;28;9571;-71
2022/10/15 11:48:09;;;;;;;;;4.50;4.50;;;;;;;;5177214;28;8795;-68
2022/10/15 11:50:43;;;;;;;;;4.00;4.00;;;;;;;;5164280;28;8814;-69
2022/10/15 11:53:17;;;;;;;;;3.60;3.60;;;;;;;;5163356;28;8829;-70
2022/10/15 11:56:04;;;;;;;;;12.80;12.60;;;;;;;;5164736;28;8830;-69
2022/10/15 11:58:41;;;;;;;;;11.00;10.60;;;;;;;;5144761;28;8824;-70
2022/10/15 12:01:21;;;;;;;;;12.20;12.20;;;;;;;;5147341;28;8941;-73
2022/10/15 12:04:13;;;;;;;;;9.40;9.40;;;;;;;;5158543;28;8863;-72
2022/10/15 12:06:48;;;;;;;;;10.20;10.20;;;;;;;;5144465;28;8793;-71
2022/10/15 12:09:40;;;;;;;;;11.40;11.40;;;;;;;;5169962;28;8810;-70
2022/10/15 12:12:26;;;;;;;;;25.00;23.80;;;;;;;;5180122;28;8845;-72
2022/10/15 12:15:16;;;;;;;;;23.40;22.60;;;;;;;;5164437;28;8867;-70
2022/10/15 12:17:51;;;;;;;;;14.00;13.40;;;;;;;;5171298;28;8787;-70
2022/10/15 12:20:22;;;;;;;;;9.40;9.40;;;;;;;;5148366;28;9620;-69
2022/10/15 12:22:53;;;;;;;;;10.80;10.80;;;;;;;;5145247;28;8796;-70
2022/10/15 12:25:33;;;;;;;;;28.75;28.25;;;;;;;;5159994;28;8783;-69
2022/10/15 12:28:12;;;;;;;;;24.40;24.40;;;;;;;;5163789;28;10326;-68
2022/10/15 12:30:57;;;;;;;;;17.40;16.80;;;;;;;;5163680;28;8865;-70
2022/10/15 12:33:51;;;;;;;;;13.00;13.00;;;;;;;;5164066;28;8799;-70
2022/10/15 12:36:29;;;;;;;;;17.80;16.20;;;;;;;;5163981;28;8819;-69
2022/10/15 12:39:04;;;;;;;;;16.60;15.80;;;;;;;;5163869;28;8811;-69
2022/10/15 12:41:35;;;;;;;;;26.40;26.40;;;;;;;;5163996;28;8814;-72
2022/10/15 12:44:27;;;;;;;;;21.60;21.60;;;;;;;;5163917;28;9569;-72
2022/10/15 12:46:58;;;;;;;;;20.00;20.00;;;;;;;;5163457;28;9524;-71
2022/10/15 12:49:33;;;;;;;;;18.80;18.40;;;;;;;;5163725;28;8794;-71
2022/10/15 12:52:23;;;;;;;;;22.60;22.60;;;;;;;;5147530;28;8822;-71
2022/10/15 12:55:14;;;;;;;;;12.20;12.20;;;;;;;;5164347;28;8814;-72
2022/10/15 12:57:45;;;;;;;;;8.60;7.60;;;;;;;;5164429;28;8787;-71
2022/10/15 13:00:25;;;;;;;;;11.40;11.40;;;;;;;;5163481;28;8823;-72
2022/10/15 13:03:01;;;;;;;;;10.60;10.60;;;;;;;;5164422;28;8791;-72
2022/10/15 13:05:33;;;;;;;;;14.40;13.80;;;;;;;;5145944;28;8823;-72
2022/10/15 13:08:10;;;;;;;;;18.80;18.80;;;;;;;;5176912;28;8855;-72
2022/10/15 13:10:48;;;;;;;;;24.80;24.80;;;;;;;;5156504;28;8819;-72
2022/10/15 13:13:42;;;;;;;;;40.80;36.80;;;;;;;;5158066;28;8819;-73
2022/10/15 13:16:13;;;;;;;;;53.60;44.40;;;;;;;;5158887;28;8896;-72
2022/10/15 13:18:48;;;;;;;;;59.40;47.60;;;;;;;;5167587;28;8830;-71
2022/10/15 13:21:19;;;;;;;;;45.60;40.40;;;;;;;;5160400;28;8822;-71
2022/10/15 13:23:50;;;;;;;;;47.00;41.00;;;;;;;;5176192;28;8909;-72
2022/10/15 13:26:40;;;;;;;;;59.20;48.00;;;;;;;;5160603;28;8798;-69
2022/10/15 13:29:15;;;;;;;;;60.75;50.00;;;;;;;;5144569;28;8807;-70
2022/10/15 13:31:47;;;;;;;;;58.60;47.60;;;;;;;;5144716;28;11537;-69
2022/10/15 13:34:29;;;;;;;;;72.60;54.80;;;;;;;;5160907;28;9495;-71
2022/10/15 13:37:01;;;;;;;;;74.40;60.00;;;;;;;;5161364;28;8795;-70
2022/10/15 13:39:37;;;;;;;;;130.00;119.75;;;;;;;;5145208;28;8897;-69
2022/10/15 13:42:16;;;;;;;;;131.00;113.75;;;;;;;;5161008;28;8922;-71
2022/10/15 13:45:00;;;;;;;;;116.75;99.50;;;;;;;;5145032;28;8811;-71
2022/10/15 13:47:31;;;;;;;;;87.00;63.40;;;;;;;;5161000;28;8897;-71
2022/10/15 13:50:20;;;;;;;;;74.00;55.75;;;;;;;;5160617;28;8819;-72
2022/10/15 13:52:54;;;;;;;;;62.00;47.40;;;;;;;;5157308;28;8898;-71
2022/10/15 13:55:27;;;;;;;;;53.00;44.00;;;;;;;;5159189;28;8954;-73
2022/10/15 13:58:00;;;;;;;;;44.80;38.20;;;;;;;;5159267;28;8796;-72
2022/10/15 14:00:33;;;;;;;;;42.40;39.00;;;;;;;;5162534;28;8819;-72
2022/10/15 14:03:08;;;;;;;;;42.80;38.80;;;;;;;;5142587;28;8806;-72
2022/10/15 14:05:40;;;;;;;;;54.00;44.20;;;;;;;;5143243;28;8802;-71
2022/10/15 14:08:19;;;;;;;;;50.80;42.00;;;;;;;;5161607;28;8799;-72
2022/10/15 14:10:52;;;;;;;;;43.00;38.20;;;;;;;;5161018;28;8846;-72
2022/10/15 14:13:45;;;;;;;;;44.60;38.20;;;;;;;;5160927;28;8808;-73
2022/10/15 14:16:29;;;;;;;;;35.40;32.00;;;;;;;;5160857;28;8800;-72
2022/10/15 14:19:03;;;;;;;;;34.60;33.80;;;;;;;;5145170;28;8896;-73
2022/10/15 14:21:35;;;;;;;;;38.40;36.20;;;;;;;;5175134;28;9593;-72
2022/10/15 14:24:11;;;;;;;;;43.40;37.80;;;;;;;;5161323;28;8873;-72
2022/10/15 14:26:43;;;;;;;;;50.00;42.20;;;;;;;;5163221;28;8906;-72
2022/10/15 14:29:20;;;;;;;;;47.40;39.60;;;;;;;;5162689;28;9629;-71
2022/10/15 14:31:51;;;;;;;;;42.40;38.80;;;;;;;;5146372;28;8784;-72
2022/10/15 14:34:25;;;;;;;;;37.00;34.40;;;;;;;;5162681;28;8913;-72
2022/10/15 14:36:56;;;;;;;;;36.80;36.00;;;;;;;;5166893;28;8792;-72
2022/10/15 14:39:34;;;;;;;;;37.75;35.50;;;;;;;;5149880;28;8787;-71
2022/10/15 14:42:06;;;;;;;;;35.60;35.40;;;;;;;;5166251;28;10574;-72
2022/10/15 14:44:40;;;;;;;;;48.60;41.60;;;;;;;;5149425;28;8829;-71
2022/10/15 14:47:33;;;;;;;;;62.40;51.00;;;;;;;;5166052;28;8814;-71
2022/10/15 14:50:24;;;;;;;;;58.20;49.20;;;;;;;;5160958;28;8986;-71
2022/10/15 14:52:56;;;;;;;;;47.20;35.80;;;;;;;;5164318;28;8874;-71
2022/10/15 14:55:30;;;;;;;;;45.20;40.00;;;;;;;;5131136;28;8953;-71
2022/10/15 14:58:06;;;;;;;;;60.80;49.60;;;;;;;;5131749;28;9491;-71
2022/10/15 15:00:39;;;;;;;;;51.00;43.20;;;;;;;;5147947;28;9610;-71
2022/10/15 15:03:13;;;;;;;;;50.80;42.80;;;;;;;;5146644;28;8801;-70
2022/10/15 15:05:44;;;;;;;;;57.00;47.00;;;;;;;;5147887;28;8885;-70
2022/10/15 15:08:15;;;;;;;;;48.00;40.40;;;;;;;;5160704;28;8803;-72
2022/10/15 15:10:47;;;;;;;;;61.80;49.80;;;;;;;;5177332;28;8838;-71
2022/10/15 15:13:38;;;;;;;;;51.80;45.60;;;;;;;;5161696;28;8795;-70
2022/10/15 15:16:11;;;;;;;;;59.40;49.80;;;;;;;;5144860;28;8877;-72
2022/10/15 15:18:42;;;;;;;;;67.40;52.20;;;;;;;;5159768;28;8816;-71
2022/10/15 15:21:16;;;;;;;;;61.40;50.60;;;;;;;;5157482;28;8794;-71
2022/10/15 15:23:47;;;;;;;;;63.20;50.40;;;;;;;;5145422;28;8831;-72
2022/10/15 15:26:18;;;;;;;;;73.80;58.00;;;;;;;;5145346;28;8795;-69
2022/10/15 15:28:49;;;;;;;;;70.50;58.00;;;;;;;;5159755;28;8799;-70
2022/10/15 15:31:20;;;;;;;;;81.00;63.40;;;;;;;;5177870;28;11527;-71
2022/10/15 15:33:52;;;;;;;;;89.25;74.00;;;;;;;;5163757;28;8835;-70
2022/10/15 15:36:41;;;;;;;;;90.20;74.40;;;;;;;;5163938;28;9804;-69
2022/10/15 15:39:13;;;;;;;;;94.60;77.40;;;;;;;;5164363;28;8879;-69
2022/10/15 15:41:44;;;;;;;;;92.40;73.00;;;;;;;;5161440;28;8938;-69
2022/10/15 15:44:33;;;;;;;;;97.60;78.60;;;;;;;;5166132;28;9557;-70
2022/10/15 15:47:04;;;;;;;;;92.50;79.25;;;;;;;;5146163;28;8803;-71
2022/10/15 15:49:36;;;;;;;;;93.00;74.60;;;;;;;;5180793;28;11820;-71